Houlton, ME (04730)

2:05 PM EDT on September 02, 2015 (GMT -0400)
Littleton | | Change Station
CLOSE
Current Station
Personal Weather Station
Location: Littleton, ME
Elevation: 371 ft
Nearby Weather Stations

Elev 371 ft 46.20 °N, 67.81 °W | Updated 3 minutes ago

Mostly Cloudy
Mostly Cloudy
85.5 °F
Feels Like 89 °F
N
5.3
Wind Variable Wind from West

Today
High -- | Low -- °F
--% Chance of Precip.
Yesterday
High -- | Low -- °F
Precip. -- in
5:52 AM 7:08 PM
Waning Gibbous, 78% visible
Pressure 29.86 in
Visibility 8.0 miles
Clouds Few 3700 ft
Mostly Cloudy 5000 ft
Heat Index 89 °F
Dew Point 68 °F
Humidity 56%
Rainfall 0.00 in
Snow Depth Not available.
UV 4 out of 12
Pollen 7.30 out of 12
Air Quality Not available.
Flu Activity Not available.
METAR KHUL 021753Z AUTO 25010KT 8SM FEW037 BKN050 27/19 A2986 RMK AO2 SLP109 T02720189 10272 20167 55010
Pressure 29.86 in
Visibility 8.0 miles
Clouds Few 3700 ft
Mostly Cloudy 5000 ft
Heat Index 89 °F
Dew Point 68 °F
Humidity 56%
Rainfall 0.00 in
Snow Depth Not available.
UV 4 out of 12
Pollen 7.30 out of 12
Air Quality Not available.
Flu Activity Not available.
METAR KHUL 021753Z AUTO 25010KT 8SM FEW037 BKN050 27/19 A2986 RMK AO2 SLP109 T02720189 10272 20167 55010

10-Day Weather Forecast

×

Almanac

Astronomy

Sep. 02, 2015 Rise Set
Actual Time
Civil Twilight
Nautical Twilight
Astronomical Twilight
Moon
Length of Visible Light
Length of Day
Tomorrow will be .
, % of the Moon is Illuminated

Today's Extremes

State Highs State Lows

Community

WunderPhotos

Upload Photos

1,851,789 photos uploaded!

WunderBlogs® & News

Nearby

Air Quality

  Air Quality AQ Index Pollutant
Not available.

Snow Depth

Station Depth Elevation

Earthquake Activity

City Distance Mag. Time & Date
Minimum magnitude displayed is 2.5.

Coastal Water Temperatures

Place Temperature

Stations

Nearby Weather Stations

Station Location Temp. Windchill Dew Point Humidity Wind Precip. Elev Updated Type